createdAt,value
2023-06-11T00:00:10.741Z,14.56
2023-06-11T00:02:58.935Z,14.47
2023-06-11T00:05:29.171Z,14.40
2023-06-11T00:08:01.757Z,14.35
2023-06-11T00:10:29.718Z,14.31
2023-06-11T00:12:58.429Z,14.27
2023-06-11T00:15:26.759Z,14.23
2023-06-11T00:20:23.803Z,14.18
2023-06-11T00:22:52.023Z,14.17
2023-06-11T00:25:20.439Z,14.16
2023-06-11T00:27:48.869Z,14.14
2023-06-11T00:30:18.327Z,14.13
2023-06-11T00:32:47.306Z,14.13
2023-06-11T00:35:15.540Z,14.10
2023-06-11T00:37:44.224Z,14.08
2023-06-11T00:40:14.055Z,14.06
2023-06-11T00:42:42.227Z,14.02
2023-06-11T00:45:11.442Z,13.99
2023-06-11T00:47:40.532Z,13.94
2023-06-11T00:50:09.773Z,13.88
2023-06-11T00:52:37.853Z,13.82
2023-06-11T00:55:07.729Z,13.76
2023-06-11T00:57:37.064Z,13.70
2023-06-11T01:00:09.526Z,13.65
2023-06-11T01:02:47.398Z,13.59
2023-06-11T01:05:19.577Z,13.55
2023-06-11T01:07:52.947Z,13.51
2023-06-11T01:10:30.699Z,13.48
2023-06-11T01:12:59.820Z,13.46
2023-06-11T01:15:28.209Z,13.41
2023-06-11T01:18:07.056Z,13.40
2023-06-11T01:20:43.201Z,13.42
2023-06-11T01:23:35.025Z,13.43
2023-06-11T01:26:25.365Z,13.43
2023-06-11T01:28:57.632Z,13.42
2023-06-11T01:31:30.703Z,13.39
2023-06-11T01:33:59.454Z,13.37
2023-06-11T01:36:38.099Z,13.33
2023-06-11T01:39:08.022Z,13.27
2023-06-11T01:41:55.760Z,13.23
2023-06-11T01:44:26.486Z,13.20
2023-06-11T01:46:56.176Z,13.18
2023-06-11T01:49:28.027Z,13.15
2023-06-11T01:51:56.311Z,13.12
2023-06-11T01:54:24.398Z,13.09
2023-06-11T01:56:52.485Z,13.06
2023-06-11T01:59:22.393Z,13.04
2023-06-11T02:01:54.325Z,13.04
2023-06-11T02:04:23.462Z,13.03
2023-06-11T02:06:51.889Z,13.01
2023-06-11T02:09:20.674Z,13.00
2023-06-11T02:11:49.054Z,12.98
2023-06-11T02:14:17.551Z,12.96
2023-06-11T02:16:45.762Z,12.95
2023-06-11T02:19:14.219Z,12.95
2023-06-11T02:21:42.223Z,12.94
2023-06-11T02:24:11.139Z,12.92
2023-06-11T02:26:39.356Z,12.90
2023-06-11T02:29:07.459Z,12.89
2023-06-11T02:31:35.523Z,12.89
2023-06-11T02:34:04.352Z,12.86
2023-06-11T02:36:32.256Z,12.84
2023-06-11T02:39:02.597Z,12.81
2023-06-11T02:42:00.984Z,12.78
2023-06-11T02:45:30.110Z,12.73
2023-06-11T02:48:52.977Z,12.68
2023-06-11T02:51:48.077Z,12.65
2023-06-11T02:55:12.154Z,12.62
2023-06-11T02:58:34.046Z,12.61
2023-06-11T03:02:11.096Z,12.60
2023-06-11T03:05:19.991Z,12.61
2023-06-11T03:08:46.004Z,12.64
2023-06-11T03:12:14.072Z,12.67
2023-06-11T03:15:18.983Z,12.70
2023-06-11T03:18:41.047Z,12.73
2023-06-11T03:22:13.971Z,12.76
2023-06-11T03:25:28.080Z,12.79
2023-06-11T03:28:36.044Z,12.84
2023-06-11T03:31:52.192Z,12.89
2023-06-11T03:35:13.284Z,12.94
2023-06-11T03:37:57.265Z,12.95
2023-06-11T03:40:26.541Z,12.93
2023-06-11T03:42:55.264Z,12.92
2023-06-11T03:45:23.735Z,12.92
2023-06-11T03:47:54.048Z,12.96
2023-06-11T03:50:22.217Z,13.01
2023-06-11T03:52:50.416Z,13.05
2023-06-11T03:55:18.642Z,13.11
2023-06-11T03:57:46.609Z,13.16
2023-06-11T04:00:15.173Z,13.21
2023-06-11T04:02:43.626Z,13.25
2023-06-11T04:05:12.985Z,13.29
2023-06-11T04:07:42.291Z,13.33
2023-06-11T04:10:10.970Z,13.36
2023-06-11T04:12:38.890Z,13.39
2023-06-11T04:15:07.913Z,13.42
2023-06-11T04:17:36.045Z,13.45
2023-06-11T04:20:06.552Z,13.47
2023-06-11T04:22:34.735Z,13.50
2023-06-11T04:25:03.176Z,13.56
2023-06-11T04:27:37.667Z,13.65
2023-06-11T04:30:23.059Z,13.72
2023-06-11T04:33:29.024Z,13.80
2023-06-11T04:36:27.050Z,13.91
2023-06-11T04:39:36.154Z,14.01
2023-06-11T04:42:17.197Z,14.09
2023-06-11T04:44:48.793Z,14.15
2023-06-11T04:47:16.807Z,14.21
2023-06-11T04:49:54.163Z,14.27
2023-06-11T04:52:22.862Z,14.34
2023-06-11T04:54:51.100Z,14.40
2023-06-11T04:57:19.068Z,14.47
2023-06-11T04:59:50.481Z,14.54
2023-06-11T05:02:19.522Z,14.62
2023-06-11T05:04:50.557Z,14.73
2023-06-11T05:07:18.654Z,14.82
2023-06-11T05:09:46.842Z,14.92
2023-06-11T05:12:14.864Z,15.02
2023-06-11T05:14:44.312Z,15.13
2023-06-11T05:17:12.493Z,15.24
2023-06-11T05:19:42.250Z,15.34
2023-06-11T05:22:10.377Z,15.41
2023-06-11T05:24:42.564Z,15.48
2023-06-11T05:27:10.914Z,15.54
2023-06-11T05:29:39.073Z,15.60
2023-06-11T05:32:09.656Z,15.66
2023-06-11T05:34:38.441Z,15.73
2023-06-11T05:37:10.024Z,15.81
2023-06-11T05:39:38.055Z,15.89
2023-06-11T05:42:07.511Z,15.96
2023-06-11T05:44:35.899Z,16.04
2023-06-11T05:47:04.459Z,16.12
2023-06-11T05:49:32.405Z,16.18
2023-06-11T05:52:00.451Z,16.26
2023-06-11T05:54:28.604Z,16.35
2023-06-11T05:56:58.022Z,16.44
2023-06-11T05:59:26.114Z,16.51
2023-06-11T06:01:54.284Z,16.61
2023-06-11T06:04:23.200Z,16.72
2023-06-11T06:06:51.538Z,16.83
2023-06-11T06:09:19.407Z,16.90
2023-06-11T06:11:47.785Z,16.90
2023-06-11T06:14:16.395Z,16.97
2023-06-11T06:16:44.795Z,17.11
2023-06-11T06:19:15.257Z,17.29
2023-06-11T06:21:43.626Z,17.47
2023-06-11T06:24:12.658Z,17.64
2023-06-11T06:26:42.064Z,17.80
2023-06-11T06:29:10.668Z,17.98
2023-06-11T06:31:39.175Z,18.14
2023-06-11T06:34:08.805Z,18.29
2023-06-11T06:36:38.322Z,18.42
2023-06-11T06:39:06.492Z,18.51
2023-06-11T06:41:34.391Z,18.57
2023-06-11T06:44:08.525Z,18.66
2023-06-11T06:46:36.605Z,18.72
2023-06-11T06:49:04.520Z,18.78
2023-06-11T06:51:33.858Z,18.87
2023-06-11T06:54:02.395Z,18.95
2023-06-11T06:56:30.738Z,19.03
2023-06-11T06:58:58.624Z,19.15
2023-06-11T07:01:28.104Z,19.26
2023-06-11T07:03:56.543Z,19.38
2023-06-11T07:06:26.117Z,19.48
2023-06-11T07:08:54.597Z,19.57
2023-06-11T07:11:23.316Z,19.66
2023-06-11T07:13:51.373Z,19.74
2023-06-11T07:16:19.975Z,19.80
2023-06-11T07:18:53.324Z,19.88
2023-06-11T07:21:21.226Z,19.90
2023-06-11T07:23:49.226Z,19.90
2023-06-11T07:26:19.198Z,19.86
2023-06-11T07:28:47.661Z,19.88
2023-06-11T07:31:15.643Z,19.95
2023-06-11T07:33:45.394Z,20.06
2023-06-11T07:36:13.570Z,20.16
2023-06-11T07:38:43.710Z,20.23
2023-06-11T07:41:12.688Z,20.28
2023-06-11T07:43:40.727Z,20.30
2023-06-11T07:46:09.795Z,20.31
2023-06-11T07:48:42.349Z,20.39
2023-06-11T07:51:10.337Z,20.36
2023-06-11T07:53:39.463Z,20.38
2023-06-11T07:56:08.966Z,20.38
2023-06-11T07:58:37.220Z,20.44
2023-06-11T08:01:05.041Z,20.56
2023-06-11T08:03:34.667Z,20.68
2023-06-11T08:06:03.020Z,20.75
2023-06-11T08:08:30.963Z,20.89
2023-06-11T08:10:58.962Z,20.89
2023-06-11T08:13:26.922Z,20.77
2023-06-11T08:15:55.233Z,20.76
2023-06-11T08:18:23.298Z,20.70
2023-06-11T08:21:32.031Z,20.64
2023-06-11T08:24:25.334Z,20.67
2023-06-11T08:28:03.135Z,20.73
2023-06-11T08:31:10.088Z,20.98
2023-06-11T08:34:37.107Z,21.23
2023-06-11T08:37:41.082Z,21.14
2023-06-11T08:41:04.029Z,21.00
2023-06-11T08:44:04.105Z,21.20
2023-06-11T08:47:18.077Z,21.41
2023-06-11T08:50:41.127Z,21.66
2023-06-11T08:53:59.029Z,21.95
2023-06-11T08:56:53.854Z,22.22
2023-06-11T09:00:22.282Z,22.52
2023-06-11T09:03:27.520Z,22.78
2023-06-11T09:06:35.747Z,22.91
2023-06-11T09:09:33.939Z,23.16
2023-06-11T09:13:00.784Z,23.36
2023-06-11T09:16:08.626Z,23.60
2023-06-11T09:19:14.297Z,23.82
2023-06-11T09:22:22.395Z,23.92
2023-06-11T09:25:24.077Z,24.11
2023-06-11T09:28:12.604Z,24.22
2023-06-11T09:31:06.828Z,24.41
2023-06-11T09:34:28.027Z,24.49
2023-06-11T09:37:21.036Z,24.41
2023-06-11T09:40:10.194Z,24.55
2023-06-11T09:42:39.107Z,24.79
2023-06-11T09:45:14.772Z,25.08
2023-06-11T09:47:45.145Z,25.23
2023-06-11T09:50:18.825Z,25.39
2023-06-11T09:52:47.186Z,25.58
2023-06-11T09:55:15.930Z,25.68
2023-06-11T09:57:44.607Z,25.61
2023-06-11T10:00:14.682Z,25.63
2023-06-11T10:02:43.962Z,25.76
2023-06-11T10:05:14.183Z,26.01
2023-06-11T10:08:06.505Z,26.08
2023-06-11T10:10:39.789Z,26.27
2023-06-11T10:13:07.991Z,25.98
2023-06-11T10:15:38.525Z,26.05
2023-06-11T10:18:15.239Z,26.27
2023-06-11T10:20:53.539Z,26.08
2023-06-11T10:23:22.300Z,26.02
2023-06-11T10:25:55.973Z,25.97
2023-06-11T10:28:37.425Z,25.75
2023-06-11T10:31:06.381Z,25.63
2023-06-11T10:33:42.990Z,25.90
2023-06-11T10:36:22.366Z,26.19
2023-06-11T10:38:50.883Z,26.43
2023-06-11T10:41:37.030Z,26.62
2023-06-11T10:44:05.074Z,26.80
2023-06-11T10:46:33.064Z,26.88
2023-06-11T10:49:01.367Z,26.59
2023-06-11T10:51:40.783Z,26.23
2023-06-11T10:54:08.762Z,26.08
2023-06-11T10:56:39.350Z,26.37
2023-06-11T10:59:10.330Z,26.62
2023-06-11T11:01:38.614Z,26.82
2023-06-11T11:04:07.044Z,26.97
2023-06-11T11:06:37.915Z,26.99
2023-06-11T11:09:06.264Z,26.97
2023-06-11T11:11:34.414Z,26.72
2023-06-11T11:14:02.523Z,26.43
2023-06-11T11:16:30.612Z,26.21
2023-06-11T11:18:58.693Z,26.43
2023-06-11T11:21:29.766Z,26.83
2023-06-11T11:23:58.244Z,27.09
2023-06-11T11:26:27.535Z,27.10
2023-06-11T11:28:56.051Z,26.96
2023-06-11T11:31:24.329Z,26.84
2023-06-11T11:33:52.354Z,26.44
2023-06-11T11:36:23.411Z,26.10
2023-06-11T11:38:51.779Z,25.83
2023-06-11T11:41:24.135Z,25.77
2023-06-11T11:43:52.387Z,25.54
2023-06-11T11:46:24.708Z,25.54
2023-06-11T11:48:57.122Z,25.37
2023-06-11T11:51:26.764Z,25.20
2023-06-11T11:53:55.138Z,25.44
2023-06-11T11:56:33.536Z,25.40
2023-06-11T12:09:47.057Z,25.38
2023-06-11T12:21:01.644Z,25.32
2023-06-11T12:35:15.034Z,25.36
2023-06-11T12:39:38.103Z,25.25
2023-06-11T12:46:54.346Z,25.20
2023-06-11T12:58:58.157Z,25.34
2023-06-11T13:03:19.022Z,25.36
2023-06-11T13:19:47.084Z,24.37
2023-06-11T13:42:55.131Z,24.47
2023-06-11T13:46:42.633Z,25.15
2023-06-11T13:53:40.483Z,26.07
2023-06-11T14:01:01.241Z,26.03
2023-06-11T14:08:19.260Z,25.38
2023-06-11T14:19:53.136Z,24.88
2023-06-11T14:23:43.204Z,24.42
2023-06-11T14:27:13.529Z,24.83
2023-06-11T14:30:56.748Z,25.13
2023-06-11T14:57:59.146Z,25.68
2023-06-11T15:08:08.041Z,25.58
2023-06-11T15:10:50.905Z,25.63
2023-06-11T15:13:30.447Z,25.61
2023-06-11T15:16:19.735Z,25.31
2023-06-11T15:19:09.012Z,25.15
2023-06-11T15:22:09.959Z,24.82
2023-06-11T15:24:38.130Z,24.71
2023-06-11T15:27:06.712Z,24.65
2023-06-11T15:29:34.749Z,24.49
2023-06-11T15:32:03.627Z,24.33
2023-06-11T15:34:31.740Z,24.13
2023-06-11T15:36:59.915Z,23.75
2023-06-11T15:39:33.174Z,23.50
2023-06-11T15:42:03.294Z,23.25
2023-06-11T15:44:32.076Z,23.05
2023-06-11T15:47:00.345Z,22.95
2023-06-11T15:49:28.327Z,22.67
2023-06-11T15:51:58.584Z,22.44
2023-06-11T15:54:26.586Z,22.26
2023-06-11T15:56:54.618Z,22.26
2023-06-11T15:59:22.722Z,22.25
2023-06-11T16:01:53.084Z,22.20
2023-06-11T16:04:21.403Z,22.23
2023-06-11T16:06:49.876Z,22.17
2023-06-11T16:09:18.156Z,22.14
2023-06-11T16:11:46.048Z,22.06
2023-06-11T16:14:16.807Z,21.94
2023-06-11T16:16:44.747Z,21.93
2023-06-11T16:19:12.651Z,22.00
2023-06-11T16:21:40.636Z,22.06
2023-06-11T16:24:09.644Z,22.07
2023-06-11T16:26:37.698Z,22.05
2023-06-11T16:29:05.651Z,21.95
2023-06-11T16:31:33.686Z,21.84
2023-06-11T16:34:01.971Z,21.77
2023-06-11T16:36:30.673Z,21.71
2023-06-11T16:39:09.465Z,21.63
2023-06-11T16:41:47.408Z,21.53
2023-06-11T16:44:15.773Z,21.43
2023-06-11T16:46:44.065Z,21.36
2023-06-11T16:49:12.014Z,21.29
2023-06-11T16:51:40.836Z,21.17
2023-06-11T16:54:08.982Z,21.07
2023-06-11T16:56:36.918Z,20.98
2023-06-11T16:59:07.853Z,20.90
2023-06-11T17:01:36.428Z,20.80
2023-06-11T17:04:07.513Z,20.71
2023-06-11T17:06:35.603Z,20.65
2023-06-11T17:09:03.753Z,20.59
2023-06-11T17:11:32.100Z,20.51
2023-06-11T17:14:00.249Z,20.42
2023-06-11T17:16:30.220Z,20.25
2023-06-11T17:18:58.473Z,20.03
2023-06-11T17:21:26.634Z,19.97
2023-06-11T17:23:58.521Z,19.89
2023-06-11T17:26:29.393Z,19.79
2023-06-11T17:28:57.340Z,19.77
2023-06-11T17:31:25.685Z,19.79
2023-06-11T17:33:53.840Z,19.79
2023-06-11T17:36:23.442Z,19.79
2023-06-11T17:38:51.561Z,19.78
2023-06-11T17:41:19.970Z,19.75
2023-06-11T17:43:47.985Z,19.72
2023-06-11T17:46:18.440Z,19.67
2023-06-11T17:48:46.562Z,19.62
2023-06-11T17:51:14.777Z,19.56
2023-06-11T17:53:43.198Z,19.49
2023-06-11T17:56:14.953Z,19.43
2023-06-11T17:58:45.097Z,19.33
2023-06-11T18:01:20.811Z,19.27
2023-06-11T18:03:51.262Z,19.21
2023-06-11T18:06:19.520Z,19.14
2023-06-11T18:08:47.810Z,19.06
2023-06-11T18:11:20.994Z,18.98
2023-06-11T18:13:49.454Z,18.89
2023-06-11T18:16:17.842Z,18.82
2023-06-11T18:18:46.086Z,18.75
2023-06-11T18:21:14.536Z,18.67
2023-06-11T18:23:44.524Z,18.59
2023-06-11T18:26:13.208Z,18.54
2023-06-11T18:28:42.044Z,18.50
2023-06-11T18:31:10.208Z,18.46
2023-06-11T18:33:39.218Z,18.42
2023-06-11T18:36:07.781Z,18.38
2023-06-11T18:38:37.481Z,18.33
2023-06-11T18:41:05.770Z,18.26
2023-06-11T18:44:19.336Z,18.18
2023-06-11T18:46:47.375Z,18.08
2023-06-11T18:49:15.833Z,18.01
2023-06-11T18:51:44.148Z,17.97
2023-06-11T18:54:12.225Z,17.95
2023-06-11T18:56:40.397Z,17.94
2023-06-11T18:59:08.367Z,17.95
2023-06-11T19:01:36.331Z,17.96
2023-06-11T19:04:04.411Z,17.96
2023-06-11T19:06:32.789Z,17.97
2023-06-11T19:09:00.722Z,17.97
2023-06-11T19:11:28.635Z,17.96
2023-06-11T19:13:57.328Z,17.95
2023-06-11T19:16:30.080Z,17.91
2023-06-11T19:19:00.882Z,17.87
2023-06-11T19:21:29.040Z,17.84
2023-06-11T19:23:58.089Z,17.81
2023-06-11T19:26:26.641Z,17.75
2023-06-11T19:28:55.525Z,17.65
2023-06-11T19:31:23.811Z,17.53
2023-06-11T19:33:51.827Z,17.45
2023-06-11T19:36:21.525Z,17.39
2023-06-11T19:38:54.315Z,17.33
2023-06-11T19:41:22.353Z,17.25
2023-06-11T19:43:50.830Z,17.18
2023-06-11T19:46:26.380Z,17.13
2023-06-11T19:48:58.259Z,17.08
2023-06-11T19:51:27.620Z,17.03
2023-06-11T19:53:59.849Z,17.04
2023-06-11T19:56:32.342Z,17.04
2023-06-11T19:59:02.484Z,17.05
2023-06-11T20:01:31.179Z,17.06
2023-06-11T20:04:15.742Z,17.09
2023-06-11T20:06:45.281Z,17.09
2023-06-11T20:09:16.269Z,17.05
2023-06-11T20:11:44.580Z,17.02
2023-06-11T20:14:13.204Z,17.00
2023-06-11T20:16:41.501Z,17.00
2023-06-11T20:19:10.668Z,17.01
2023-06-11T20:21:39.035Z,17.01
2023-06-11T20:24:07.894Z,17.01
2023-06-11T20:26:37.153Z,16.97
2023-06-11T20:29:05.412Z,16.93
2023-06-11T20:31:34.143Z,16.88
2023-06-11T20:34:02.071Z,16.82
2023-06-11T20:36:30.778Z,16.77
2023-06-11T20:38:58.837Z,16.73
2023-06-11T20:41:27.341Z,16.68
2023-06-11T20:43:55.495Z,16.62
2023-06-11T20:48:54.663Z,16.53
2023-06-11T20:51:22.662Z,16.48
2023-06-11T20:53:50.670Z,16.45
2023-06-11T20:56:20.038Z,16.43
2023-06-11T20:58:48.536Z,16.43
2023-06-11T21:01:16.969Z,16.42
2023-06-11T21:03:45.180Z,16.43
2023-06-11T21:06:13.406Z,16.41
2023-06-11T21:08:45.964Z,16.40
2023-06-11T21:11:18.119Z,16.41
2023-06-11T21:13:53.853Z,16.44
2023-06-11T21:16:28.127Z,16.46
2023-06-11T21:18:58.461Z,16.48
2023-06-11T21:21:26.395Z,16.47
2023-06-11T21:23:54.402Z,16.45
2023-06-11T21:26:22.368Z,16.42
2023-06-11T21:28:50.301Z,16.38
2023-06-11T21:31:18.248Z,16.35
2023-06-11T21:33:46.264Z,16.33
2023-06-11T21:36:14.158Z,16.32
2023-06-11T21:38:42.110Z,16.31
2023-06-11T21:41:11.747Z,16.29
2023-06-11T21:43:40.059Z,16.28
2023-06-11T21:46:08.358Z,16.27
2023-06-11T21:48:36.496Z,16.20
2023-06-11T21:51:04.692Z,16.17
2023-06-11T21:53:32.731Z,16.14
2023-06-11T21:56:00.893Z,16.08
2023-06-11T21:58:28.875Z,16.04
2023-06-11T22:00:57.021Z,16.00
2023-06-11T22:03:27.535Z,15.95
2023-06-11T22:05:58.932Z,15.90
2023-06-11T22:08:26.945Z,15.88
2023-06-11T22:10:55.464Z,15.88
2023-06-11T22:13:23.270Z,15.88
2023-06-11T22:15:51.350Z,15.89
2023-06-11T22:18:22.772Z,15.91
2023-06-11T22:20:50.658Z,15.95
2023-06-11T22:23:18.744Z,16.00
2023-06-11T22:25:46.736Z,16.02
2023-06-11T22:28:14.695Z,16.02
2023-06-11T22:30:56.387Z,16.04
2023-06-11T22:33:25.807Z,16.06
2023-06-11T22:35:53.737Z,16.10
2023-06-11T22:38:21.976Z,16.12
2023-06-11T22:40:50.770Z,16.14
2023-06-11T22:43:18.841Z,16.15
2023-06-11T22:45:46.911Z,16.17
2023-06-11T22:48:14.884Z,16.23
2023-06-11T22:50:42.797Z,16.26
2023-06-11T22:53:14.705Z,16.22
2023-06-11T22:55:43.640Z,16.17
2023-06-11T22:58:11.627Z,16.12
2023-06-11T23:00:40.135Z,16.08
2023-06-11T23:03:09.018Z,16.02
2023-06-11T23:05:39.349Z,15.96
2023-06-11T23:08:07.673Z,15.90
2023-06-11T23:10:35.827Z,15.85
2023-06-11T23:13:03.898Z,15.80
2023-06-11T23:15:31.728Z,15.77
2023-06-11T23:18:06.133Z,15.75
2023-06-11T23:20:36.427Z,15.75
2023-06-11T23:23:06.604Z,15.76
2023-06-11T23:25:35.015Z,15.78
2023-06-11T23:28:02.973Z,15.81
2023-06-11T23:31:08.186Z,15.84
2023-06-11T23:34:25.281Z,15.88
2023-06-11T23:37:40.232Z,15.86
2023-06-11T23:41:05.272Z,15.80
2023-06-11T23:44:03.594Z,15.76
2023-06-11T23:47:21.209Z,15.68
2023-06-11T23:50:27.231Z,15.64
2023-06-11T23:53:42.243Z,15.66
2023-06-11T23:56:51.229Z,15.67
